メインページ
METAR-TAF:

METAR-TAF

空港 :

バーレーン国際空港

バーレーン, バーレーン

緯度: 26-16N, 経度: 050-39E, 海抜: 2m

現時点の気象観測

当レポートは28分前の22:30(UTC)に作成
北西の風 5kt
気温 33°C
湿度 53%
気圧 999 hPa
視程10km以上
1,500メートル以下は雲なし、積乱雲なし

METAR: OBBI 182230Z 31005KT CAVOK 33/22 Q0999 NOSIG

時間: 01:58 (22:58 UTC)

予報

当レポートは5時間58分前の17:00(UTC)に作成
予報は18日の 18時(UTC)から 20日の 00時(UTC)まで有効
北西の風 10kt
視程10km以上
1,500メートル以下は雲なし、積乱雲なし
確率 30% :
18日の 21時(UTC)から 19日の 03時(UTC)まで一時的に
視程: 5000m
広範な塵
19日の 04時(UTC)から 19日の 06時(UTC)まで徐々に
北/北西の風 17kt、最大27ktの突風を伴う

TAF: OBBI 181700Z 1818/2000 31010KT CAVOK PROB30 TEMPO 1821/1903 5000 DU BECMG 1904/1906 33017G27KT

4,000以上の空港の気象観測と天気予報(METAR報とTAF報)

利用可能な観測所は地図上に黄色い丸と赤い丸で示す。

丸の上にカーソルを重ねると観測所名を参照できる。

次にクリックすると気象観測と天気予報を参照できる。

マップの切り替え:黒色「×」印の緑ボタンをクリックして拡大、「-」印の緑ボタンをクリックして縮小、緑色の三角印をクリックして隣りの地図に切り替え


METAR-TAF: